• Join FlightAware (Why Join?)
  • Login
  • US Flag 
07:53AM EDT


 

Airport Tracker/Info


-or-


 

Live Flight TrackerFlight Track Log ✈ KAP17 ✈ 10-May-2013 ✈ KLEB - KBOS

Flight Track Log - Related Links

Times and Time Zones

All times are in EDT time to prevent confusion due to time zone crossing. See the KAP17 flight status page for this flight to view local times or setup timezone preferences in your user account.

Time Position Orientation Groundspeed Altitude Reporting Facility
EDT Latitude Longitude Course Direction KTS MPH feet Rate Location/Type
01:47PM 43.6569 -72.2364 60° Northeast 154 177 3,600  Level Boston Center
01:48PM 43.6442 -72.1906 111° Southeast 148 170 4,400 720 Climbing Boston Center
01:49PM 43.6275 -72.1475 118° Southeast 143 165 5,100 600 Climbing Boston Center
01:50PM 43.6003 -72.1075 133° Southeast 136 157 5,700 420 Climbing Boston Center
01:51PM 43.5711 -72.0703 137° Southeast 136 157 6,000  Climbing Boston Center
01:52PM 43.5314 -72.0306 144° Southeast 160 184 5,700 -240 Descending Boston Center
01:53PM 43.4917 -71.9967 148° Southeast 174 200 5,600 -120 Descending Boston Center
01:54PM 43.4497 -71.9597 147° Southeast 174 200 5,500  Descending Boston Center
01:55PM 43.4100 -71.9228 146° Southeast 174 200 5,600  Climbing Boston Center
01:56PM 43.3661 -71.8861 149° Southeast 174 200 5,500 -60 Descending Boston Center
01:57PM 43.3306 -71.8550 132° Southeast 169 194 5,500  Level Boston Center
01:58PM 43.2908 -71.8211 148° Southeast 164 189 5,500  Level Boston Center
01:59PM 43.2550 -71.7872 145° Southeast 164 189 5,600  Climbing Boston Center
02:00PM 43.2131 -71.7478 146° Southeast 164 189 5,600  Level Boston Center
02:01PM 43.1797 -71.7169 146° Southeast 164 189 5,600 -60 Level Boston Center
02:02PM 43.1356 -71.6747 145° Southeast 164 189 5,500 -60 Descending Boston Center
02:04PM 43.0500 -71.6000 147° Southeast 168 193 5,500  Level KA90
02:05PM 43.0167 -71.5667 144° Southeast 164 189 5,500  Level KA90
02:06PM 42.9833 -71.5333 144° Southeast 166 191 5,500  Level KA90
02:07PM 42.9333 -71.5000 154° Southeast 167 192 5,500  Level KA90
02:09PM 42.9000 -71.4667 144° Southeast 171 197 5,500 -60 Level KA90
02:10PM 42.8500 -71.4333 154° Southeast 170 196 5,400 -120 Descending KA90
02:11PM 42.8167 -71.3833 132° Southeast 172 198 5,300 -300 Descending KA90
02:12PM 42.7667 -71.3667 166° South 182 209 4,800 -420 Descending KA90
02:13PM 42.7333 -71.3333 144° Southeast 183 211 4,500 -120 Descending KA90
02:14PM 42.6833 -71.3000 154° Southeast 174 200 4,600  Climbing KA90
02:15PM 42.6333 -71.2667 154° Southeast 168 193 4,600 -60 Level KA90
02:16PM 42.6000 -71.2333 144° Southeast 164 189 4,500 -60 Descending KA90
02:17PM 42.5500 -71.2000 154° Southeast 162 186 4,500  Level KA90
02:18PM 42.5167 -71.1833 160° South 166 191 4,500  Level KA90
02:19PM 42.4667 -71.1500 154° Southeast 165 190 4,500  Level KA90
02:20PM 42.4333 -71.1333 160° South 164 189 4,500 -180 Level KA90
02:21PM 42.3833 -71.1500 194° South 170 196 4,200 -540 Descending KA90
02:22PM 42.3333 -71.1500 180° South 170 196 3,600 -720 Descending KA90
02:23PM 42.3000 -71.1167 144° Southeast 167 192 2,900 -720 Descending KA90
02:24PM 42.3000 -71.0667 90° East 162 186 2,100 -900 Descending KA90
02:25PM 42.3333 -71.0333 36° Northeast 138 159 1,100 -1,020 Descending KA90
02:27PM 42.3500 -71.0000 36° Northeast  Level FlightAware Approximate
02:34PM 42.3630 -71.0064 36° Northeast  Level Estimated
02:35PM 42.3630 -71.0064 36° Northeast  Level Estimated